ZLXY/XIY METAR and TAF weather

Enter ICAO airport designator
Station Type Date Time Source
ZLXY METAR 2022/01/18 08:00 UTC NOAA

ZLXY 180800Z 19002MPS 140V210 6000 NSC 09/M07 Q1021 NOSIG


Station Type Date Time Source
ZLXY Decoded METAR 2022/01/18 08:00 UTC NOAA

Xian/Xianyang, China (ZLXY) 34-26N 108-45E
Jan 18, 2022 - 03:00 AM EST / 2022.01.18 0800 UTC
Wind: from the S (190 degrees) at 4 MPH (4 KT) (direction variable):0
Visibility: 3 mile(s):0
Temperature: 48 F (9 C)
Dew Point: 19 F (-7 C)
Relative Humidity: 31%
Pressure (altimeter): 30.15 in. Hg (1021 hPa)
ob: ZLXY 180800Z 19002MPS 140V210 6000 NSC 09/M07 Q1021 NOSIG
cycle: 8

Station Type Date Time Source
ZLXY TAF 2022/01/18 06:03 UTC NOAA

TAF ZLXY 180305Z 1806/1906 06003MPS 3000 HZ NSC TX10/1807Z TNM03/1823Z

Example: see airport list